Time;durP1;ratioP1;P1;durP2;ratioP2;P2;SDS_P1;SDS_P2;PMS_P1;PMS_P2;Temp;Humidity;BMP_temperature;BMP_pressure;BME280_temperature;BME280_humidity;BME280_pressure;Samples;Min_cycle;Max_cycle;Signal;HPM_P1;HPM_P2
2024/04/26 00:00:22;;;;;;;32.22;18.80;;;;;;;31.75;90.56;100665.53;5386868;26;69812;-39
2024/04/26 00:02:53;;;;;;;31.90;22.15;;;;;;;31.79;92.02;100666.72;5387005;26;64559;-39
2024/04/26 00:05:24;;;;;;;26.02;18.05;;;;;;;31.79;92.17;100672.16;5387383;26;68563;-37
2024/04/26 00:07:55;;;;;;;23.27;16.20;;;;;;;31.85;90.94;100676.66;5387759;26;65334;-39
2024/04/26 00:10:26;;;;;;;;;;;;;;;31.90;98.29;100673.22;5415169;26;68912;-38
2024/04/26 00:12:57;;;;;;;16.15;14.55;;;;;;;31.89;93.68;100675.09;5387006;26;64161;-37
2024/04/26 00:15:28;;;;;;;21.85;18.05;;;;;;;31.89;91.91;100688.69;5392209;26;68725;-38
2024/04/26 00:17:59;;;;;;;19.00;15.70;;;;;;;31.95;91.97;100693.19;5402044;26;64977;-38
2024/04/26 00:20:31;;;;;;;19.40;14.57;;;;;;;31.97;93.84;100696.50;5385214;26;68394;-37
2024/04/26 00:23:03;;;;;;;20.40;15.77;;;;;;;31.95;91.88;100692.38;5388662;26;64277;-39
2024/04/26 00:25:34;;;;;;;16.60;14.10;;;;;;;31.88;91.85;100676.19;5387922;26;68683;-39
2024/04/26 00:28:05;;;;;;;19.27;14.98;;;;;;;32.05;92.88;100698.88;5380117;26;64686;-39
2024/04/26 00:30:36;;;;;;;16.55;14.00;;;;;;;32.04;92.53;100710.81;5383557;26;68424;-40
2024/04/26 00:33:08;;;;;;;16.80;12.90;;;;;;;32.10;94.14;100711.78;5385176;26;64908;-39
2024/04/26 00:35:38;;;;;;;;;;;;;;;32.11;99.54;100718.03;5383030;26;69254;-40
2024/04/26 00:38:09;;;;;;;15.32;10.88;;;;;;;32.13;93.30;100719.44;5386735;26;64913;-40
2024/04/26 00:40:40;;;;;;;13.38;11.60;;;;;;;32.16;96.52;100726.28;5385313;26;69505;-40
2024/04/26 00:43:11;;;;;;;12.68;10.18;;;;;;;32.17;92.98;100734.19;5381634;26;65825;-40
2024/04/26 00:45:42;;;;;;;12.40;9.63;;;;;;;32.21;93.93;100734.56;5385026;26;68916;-39
2024/04/26 00:48:13;;;;;;;9.48;8.68;;;;;;;32.21;95.75;100745.44;5382733;26;65330;-38
2024/04/26 00:50:45;;;;;;;10.80;9.68;;;;;;;32.23;94.17;100746.00;5398517;26;68937;-39
2024/04/26 00:53:17;;;;;;;17.52;10.25;;;;;;;32.27;93.33;100744.50;5385805;26;65009;-39
2024/04/26 00:55:50;;;;;;;16.55;11.32;;;;;;;32.19;94.43;100733.97;5373089;26;68469;-40
2024/04/26 00:58:21;;;;;;;14.95;12.82;;;;;;;32.30;96.34;100760.31;5382288;26;64778;-40
2024/04/26 01:00:52;;;;;;;15.82;11.35;;;;;;;32.29;93.07;100755.94;5382889;26;68909;-40
2024/04/26 01:03:24;;;;;;;16.45;12.07;;;;;;;32.34;94.48;100763.38;5373278;26;64821;-37
2024/04/26 01:05:55;;;;;;;11.63;10.27;;;;;;;32.40;92.56;100766.00;5384602;26;68653;-39
2024/04/26 01:08:26;;;;;;;13.90;11.38;;;;;;;32.46;92.28;100773.25;5385457;26;64670;-39
2024/04/26 01:10:59;;;;;;;10.57;9.65;;;;;;;32.52;90.90;100767.94;5383028;26;69114;-38
2024/04/26 01:13:32;;;;;;;11.70;10.52;;;;;;;32.54;91.66;100777.50;5384871;26;65223;-38
2024/04/26 01:16:04;;;;;;;11.07;9.90;;;;;;;32.54;90.47;100777.50;5384045;26;67927;-40
2024/04/26 01:18:35;;;;;;;11.90;10.57;;;;;;;32.51;90.64;100779.84;5363176;26;64257;-38
2024/04/26 01:21:07;;;;;;;12.55;10.32;;;;;;;32.56;90.20;100785.41;5383728;26;68936;-38
2024/04/26 01:23:38;;;;;;;10.90;9.80;;;;;;;32.53;90.08;100780.44;5380774;26;63793;-36
2024/04/26 01:26:10;;;;;;;10.15;9.25;;;;;;;32.60;89.92;100797.47;5390345;26;68424;-37
2024/04/26 01:28:41;;;;;;;10.18;9.45;;;;;;;32.62;90.26;100795.31;5384393;26;63767;-37
2024/04/26 01:31:12;;;;;;;14.33;9.40;;;;;;;32.65;90.57;100795.69;5382390;26;67907;-38
2024/04/26 01:33:43;;;;;;;10.02;9.25;;;;;;;32.67;90.06;100798.97;5384539;26;64945;-38
2024/04/26 01:36:14;;;;;;;9.90;9.10;;;;;;;32.69;89.81;100801.47;5385427;26;69066;-38
2024/04/26 01:38:46;;;;;;;10.23;9.23;;;;;;;32.74;89.58;100798.91;5381575;26;64376;-38
2024/04/26 01:41:17;;;;;;;9.43;8.73;;;;;;;32.77;88.47;100800.31;5381813;26;67780;-36
2024/04/26 01:43:48;;;;;;;8.90;8.13;;;;;;;32.81;88.76;100798.75;5385415;26;64190;-37
2024/04/26 01:46:19;;;;;;;10.10;9.20;;;;;;;32.84;88.37;100799.13;5382762;26;69032;-38
2024/04/26 01:48:51;;;;;;;10.35;9.18;;;;;;;32.84;88.58;100801.81;5364950;26;64770;-37
2024/04/26 01:51:21;;;;;;;9.75;8.98;;;;;;;32.87;88.29;100798.63;5396805;26;67594;-38
2024/04/26 01:53:53;;;;;;;9.37;8.47;;;;;;;32.90;87.58;100803.63;5381639;26;64386;-37
2024/04/26 01:56:24;;;;;;;9.40;8.55;;;;;;;32.95;87.88;100805.63;5384005;26;69087;-38
2024/04/26 01:58:55;;;;;;;9.10;8.18;;;;;;;32.98;86.90;100807.03;5382223;26;65321;-38
2024/04/26 02:01:30;;;;;;;8.93;8.02;;;;;;;33.01;88.10;100803.88;5383759;26;67645;-38
2024/04/26 02:04:01;;;;;;;9.57;8.80;;;;;;;33.02;87.81;100805.56;5366537;26;65161;-40
2024/04/26 02:06:32;;;;;;;8.70;7.90;;;;;;;33.02;87.25;100800.13;5380979;26;68615;-37
2024/04/26 02:09:04;;;;;;;8.50;7.80;;;;;;;33.07;86.36;100797.50;5382204;26;64975;-39
2024/04/26 02:11:35;;;;;;;;;;;;;;;33.01;89.08;100793.00;5384599;26;68733;-39
2024/04/26 02:14:07;;;;;;;8.82;7.97;;;;;;;33.11;87.17;100785.09;5378176;26;64833;-38
2024/04/26 02:16:38;;;;;;;7.70;7.15;;;;;;;33.13;86.16;100781.06;5377698;26;68794;-37
2024/04/26 02:19:12;;;;;;;8.80;7.85;;;;;;;33.19;86.43;100784.72;5383280;26;65347;-38
2024/04/26 02:21:43;;;;;;;7.00;6.50;;;;;;;33.20;86.08;100780.94;5382594;26;69367;-37
2024/04/26 02:24:14;;;;;;;7.83;7.33;;;;;;;33.22;86.51;100773.38;5375178;26;65141;-40
2024/04/26 02:26:45;;;;;;;7.88;7.10;;;;;;;33.24;85.82;100776.69;5381926;26;68734;-36
2024/04/26 02:29:17;;;;;;;7.22;6.68;;;;;;;33.27;85.13;100783.53;5383688;26;65056;-39
2024/04/26 02:31:48;;;;;;;8.18;7.47;;;;;;;33.32;85.99;100773.59;5383416;26;68651;-38
2024/04/26 02:34:20;;;;;;;9.77;7.13;;;;;;;33.31;85.69;100766.50;5381429;26;64268;-37
2024/04/26 02:36:51;;;;;;;7.28;6.78;;;;;;;33.37;85.02;100770.97;5384065;26;67592;-38
2024/04/26 02:39:22;;;;;;;6.93;6.40;;;;;;;33.40;84.92;100782.44;5383436;26;63796;-37
2024/04/26 02:41:54;;;;;;;6.20;5.80;;;;;;;33.42;85.28;100777.59;5372562;26;67892;-37
2024/04/26 02:44:25;;;;;;;6.43;6.03;;;;;;;33.45;85.48;100777.09;5384070;26;64213;-37
2024/04/26 02:46:56;;;;;;;7.00;6.43;;;;;;;33.49;85.28;100783.72;5381756;26;67796;-38
2024/04/26 02:49:28;;;;;;;6.57;6.07;;;;;;;33.50;84.82;100778.03;5378252;26;64292;-38
2024/04/26 02:51:59;;;;;;;8.32;7.25;;;;;;;33.54;84.43;100775.69;5382136;26;68371;-38
2024/04/26 02:54:30;;;;;;;6.80;6.30;;;;;;;33.56;84.53;100774.38;5378501;26;63813;-37
2024/04/26 02:57:03;;;;;;;6.78;6.28;;;;;;;33.59;84.58;100773.06;5379486;26;68575;-37
2024/04/26 02:59:34;;;;;;;6.25;5.85;;;;;;;33.65;83.71;100765.84;5379636;26;64502;-38
2024/04/26 03:02:06;;;;;;;6.05;5.65;;;;;;;33.57;83.51;100746.13;5376616;26;68559;-38
2024/04/26 03:04:37;;;;;;;6.50;6.10;;;;;;;33.70;83.49;100758.59;5381506;26;65173;-39
2024/04/26 03:07:10;;;;;;;6.18;5.78;;;;;;;33.71;83.54;100754.84;5384127;26;69048;-38
2024/04/26 03:09:42;;;;;;;7.20;5.28;;;;;;;33.74;83.49;100754.34;5382867;26;65158;-37
2024/04/26 03:12:13;;;;;;;6.68;6.07;;;;;;;33.77;84.26;100745.69;5385465;26;68653;-39
2024/04/26 03:14:45;;;;;;;5.20;4.88;;;;;;;33.81;83.41;100749.56;5383570;26;63732;-38
2024/04/26 03:17:16;;;;;;;6.05;5.68;;;;;;;33.81;83.72;100738.69;5381647;26;68755;-37
2024/04/26 03:19:47;;;;;;;6.13;5.57;;;;;;;33.89;82.87;100739.38;5384563;26;64258;-37
2024/04/26 03:22:19;;;;;;;6.03;5.43;;;;;;;33.92;83.17;100733.44;5386560;26;68809;-39
2024/04/26 03:24:50;;;;;;;5.32;4.93;;;;;;;33.95;83.31;100730.22;5383086;26;64876;-37
2024/04/26 03:27:21;;;;;;;5.57;4.90;;;;;;;33.99;83.35;100742.25;5384724;26;68519;-37
2024/04/26 03:29:52;;;;;;;5.95;5.43;;;;;;;34.01;83.00;100738.22;5363904;26;65040;-38
2024/04/26 03:32:24;;;;;;;4.35;4.05;;;;;;;34.04;82.54;100717.84;5385128;26;68105;-38
2024/04/26 03:34:55;;;;;;;5.40;5.05;;;;;;;34.10;82.27;100716.94;5386378;26;65499;-37
2024/04/26 03:37:26;;;;;;;5.15;4.75;;;;;;;34.12;82.68;100714.75;5382561;26;68743;-36
2024/04/26 03:39:57;;;;;;;4.45;4.15;;;;;;;34.16;82.81;100721.38;5386362;26;63809;-36
2024/04/26 03:42:29;;;;;;;5.28;4.85;;;;;;;34.19;82.67;100723.59;5384813;26;68585;-38
2024/04/26 03:45:00;;;;;;;5.55;5.15;;;;;;;34.20;82.27;100714.34;5382272;26;64935;-37
2024/04/26 03:47:31;;;;;;;5.22;4.93;;;;;;;34.26;81.68;100717.97;5384013;26;67836;-38
2024/04/26 03:50:03;;;;;;;4.80;4.50;;;;;;;34.29;81.78;100711.22;5386292;26;63847;-36
2024/04/26 03:52:34;;;;;;;5.05;4.75;;;;;;;34.35;82.11;100715.66;5368813;26;67383;-38
2024/04/26 03:55:06;;;;;;;4.68;4.38;;;;;;;34.37;81.58;100705.38;5386564;26;65171;-38
2024/04/26 03:57:37;;;;;;;4.38;4.05;;;;;;;34.41;81.15;100709.25;5378525;26;69074;-38
2024/04/26 04:00:09;;;;;;;4.68;4.35;;;;;;;34.44;81.31;100706.03;5378673;26;64313;-39
2024/04/26 04:02:40;;;;;;;6.32;4.28;;;;;;;34.44;80.99;100701.41;5383975;26;68693;-40
2024/04/26 04:05:12;;;;;;;4.50;4.13;;;;;;;34.52;80.71;100711.06;5383689;26;64869;-39
2024/04/26 04:07:43;;;;;;;;;;;;;;;34.45;82.05;100704.94;5385474;26;69114;-38
2024/04/26 04:10:14;;;;;;;3.95;3.63;;;;;;;34.59;80.53;100702.72;5383579;26;65135;-40
2024/04/26 04:12:46;;;;;;;4.65;4.35;;;;;;;34.63;80.81;100685.66;5380315;26;68855;-38
2024/04/26 04:15:18;;;;;;;4.63;4.32;;;;;;;34.65;80.66;100680.75;5382794;26;64892;-38
2024/04/26 04:17:49;;;;;;;4.30;4.00;;;;;;;34.66;80.59;100693.31;5382939;26;68573;-38
2024/04/26 04:20:21;;;;;;;4.60;4.30;;;;;;;34.69;80.50;100684.63;5374426;26;64663;-38
2024/04/26 04:22:52;;;;;;;;;;;;;;;34.67;80.90;100670.44;5379208;26;69339;-39
2024/04/26 04:25:25;;;;;;;7.07;4.28;;;;;;;34.78;80.16;100665.13;5381270;26;65608;-38
2024/04/26 04:27:57;;;;;;;3.40;3.20;;;;;;;34.80;80.29;100669.25;5376159;26;68773;-38
2024/04/26 04:30:28;;;;;;;4.38;3.90;;;;;;;34.83;80.55;100663.31;5374197;26;65122;-39
2024/04/26 04:32:59;;;;;;;4.63;4.05;;;;;;;34.85;80.14;100665.75;5383043;26;68891;-39
2024/04/26 04:35:31;;;;;;;4.18;3.90;;;;;;;34.88;79.96;100666.09;5379138;26;64618;-38
2024/04/26 04:38:03;;;;;;;3.55;3.25;;;;;;;34.92;80.47;100652.78;5383244;26;68292;-38
2024/04/26 04:40:35;;;;;;;3.70;3.50;;;;;;;34.90;80.48;100649.47;5382084;26;65226;-37
2024/04/26 04:43:10;;;;;;;4.20;3.90;;;;;;;34.79;79.53;100615.81;5380902;26;70150;-38
2024/04/26 04:45:41;;;;;;;3.58;3.38;;;;;;;34.98;80.37;100632.69;5383599;26;65581;-38
2024/04/26 04:48:13;;;;;;;3.97;3.67;;;;;;;35.05;79.68;100643.38;5375319;26;67364;-37
2024/04/26 04:50:44;;;;;;;;;;;;;;;34.99;80.39;100631.59;5383205;26;64231;-38
2024/04/26 04:53:15;;;;;;;4.00;3.70;;;;;;;35.10;80.24;100635.28;5384785;26;69213;-38
2024/04/26 04:55:47;;;;;;;3.50;3.20;;;;;;;35.11;79.98;100626.88;5381888;26;64309;-40
2024/04/26 04:58:18;;;;;;;3.80;3.42;;;;;;;35.14;79.68;100611.91;5384865;26;68745;-39
2024/04/26 05:00:51;;;;;;;3.45;3.25;;;;;;;35.19;79.84;100617.44;5384549;26;64370;-38
2024/04/26 05:03:23;;;;;;;3.63;3.42;;;;;;;35.23;79.21;100612.28;5383768;26;69450;-38
2024/04/26 05:05:54;;;;;;;3.80;3.60;;;;;;;35.26;79.92;100606.31;5383260;26;64780;-38
2024/04/26 05:08:25;;;;;;;;;;;;;;;35.19;79.67;100609.25;5383525;26;68412;-38
2024/04/26 05:10:56;;;;;;;4.18;3.60;;;;;;;35.31;79.16;100601.72;5385109;26;66260;-39
2024/04/26 05:13:29;;;;;;;3.70;3.45;;;;;;;35.33;78.95;100596.03;5384548;26;67582;-39
2024/04/26 05:16:01;;;;;;;4.25;3.55;;;;;;;35.36;79.40;100579.16;5381641;26;66413;-39
2024/04/26 05:18:32;;;;;;;3.38;3.17;;;;;;;35.33;78.44;100569.56;5359868;26;69829;-37
2024/04/26 05:21:03;;;;;;;;;;;;;;;35.35;78.86;100572.88;5386252;26;65093;-39
2024/04/26 05:23:34;;;;;;;3.38;3.17;;;;;;;35.44;79.03;100570.50;5381744;26;69349;-41
2024/04/26 05:26:05;;;;;;;;;;;;;;;35.38;78.57;100566.06;5383405;26;65080;-39
2024/04/26 05:28:36;;;;;;;2.80;2.55;;;;;;;35.51;79.08;100562.09;5382925;26;68070;-38
2024/04/26 05:31:08;;;;;;;3.20;3.00;;;;;;;35.53;78.68;100549.03;5378995;26;64070;-38
2024/04/26 05:33:39;;;;;;;3.33;3.13;;;;;;;35.55;78.43;100544.94;5382287;26;67655;-41
2024/04/26 05:36:10;;;;;;;;;;;;;;;35.51;78.63;100538.34;5384161;26;64148;-38
2024/04/26 05:38:41;;;;;;;3.10;2.90;;;;;;;35.57;78.25;100537.34;5381298;26;69060;-39
2024/04/26 05:41:13;;;;;;;2.85;2.65;;;;;;;35.64;78.50;100530.84;5378256;26;65190;-38
2024/04/26 05:43:44;;;;;;;;;;;;;;;35.60;78.24;100529.72;5376627;26;67822;-37
2024/04/26 05:46:15;;;;;;;3.10;2.90;;;;;;;35.69;78.04;100533.59;5383721;26;65279;-38
2024/04/26 05:48:47;;;;;;;2.97;2.78;;;;;;;35.72;78.21;100528.47;5353506;26;67398;-39
2024/04/26 05:51:18;;;;;;;2.63;2.42;;;;;;;35.68;77.96;100499.22;5382539;26;64932;-39
2024/04/26 05:53:53;;;;;;;3.88;2.92;;;;;;;35.79;78.26;100517.31;5384137;26;67398;-40
2024/04/26 05:56:25;;;;;;;2.92;2.70;;;;;;;35.79;78.10;100504.47;5382821;26;64997;-38
2024/04/26 05:58:56;;;;;;;3.10;2.90;;;;;;;35.86;78.14;100517.06;5381127;26;68752;-38
2024/04/26 06:01:28;;;;;;;2.95;2.75;;;;;;;35.90;77.89;100508.09;5383549;26;65023;-38
2024/04/26 06:04:00;;;;;;;2.50;2.40;;;;;;;35.94;78.13;100503.78;5361126;26;67753;-40
2024/04/26 06:06:34;;;;;;;4.78;3.20;;;;;;;35.96;78.11;100496.13;5381625;26;65266;-39
2024/04/26 06:09:07;;;;;;;3.25;2.85;;;;;;;36.00;77.67;100491.78;5385322;26;68043;-39
2024/04/26 06:11:39;;;;;;;2.95;2.75;;;;;;;36.02;77.80;100484.16;5382989;26;64049;-38
2024/04/26 06:14:11;;;;;;;2.88;2.67;;;;;;;36.08;77.99;100484.19;5383857;26;67497;-39
2024/04/26 06:16:42;;;;;;;2.70;2.60;;;;;;;36.13;77.28;100465.94;5384805;26;64455;-44
2024/04/26 06:19:14;;;;;;;3.55;2.42;;;;;;;36.18;77.64;100471.41;5380343;26;68859;-38
2024/04/26 06:21:45;;;;;;;;;;;;;;;36.13;76.86;100463.19;5391099;26;63584;-42
2024/04/26 06:24:16;;;;;;;2.72;2.53;;;;;;;36.27;77.42;100455.34;5385926;26;68430;-39
2024/04/26 06:26:47;;;;;;;2.90;2.70;;;;;;;36.30;77.49;100454.81;5380899;26;64068;-38
2024/04/26 06:29:19;;;;;;;2.15;2.05;;;;;;;36.34;77.31;100446.91;5383752;26;68699;-43
2024/04/26 06:31:55;;;;;;;3.83;2.58;;;;;;;36.38;77.03;100450.75;5384937;26;65451;-40
2024/04/26 06:34:27;;;;;;;2.95;2.75;;;;;;;36.45;77.08;100452.13;5383327;26;68612;-38
2024/04/26 06:36:59;;;;;;;;;;;;;;;36.36;76.35;100445.56;5375655;26;64505;-40
2024/04/26 06:39:31;;;;;;;2.40;2.22;;;;;;;36.53;76.83;100439.91;5381047;26;68616;-41
2024/04/26 06:42:03;;;;;;;2.00;1.90;;;;;;;36.58;76.47;100433.59;5385157;26;64815;-42
2024/04/26 06:44:34;;;;;;;2.58;2.35;;;;;;;36.62;76.63;100416.41;5385629;26;69256;-39
2024/04/26 06:47:06;;;;;;;2.55;2.40;;;;;;;36.65;76.66;100406.84;5384981;26;65193;-39
2024/04/26 06:49:37;;;;;;;;;;;;;;;36.62;75.19;100410.13;5387787;26;67603;-40
2024/04/26 06:52:09;;;;;;;1.98;1.88;;;;;;;36.78;76.12;100411.78;5381744;26;64721;-39
2024/04/26 06:54:40;;;;;;;1.95;1.85;;;;;;;36.83;75.42;100410.97;5386086;26;67594;-39
2024/04/26 06:57:11;;;;;;;;;;;;;;;36.78;74.52;100411.78;5395043;26;64649;-39
2024/04/26 06:59:43;;;;;;;2.13;1.75;;;;;;;36.93;75.81;100407.44;5385137;26;68572;-38
2024/04/26 07:02:15;;;;;;;;;;;;;;;36.91;74.87;100403.03;5385885;26;64720;-39
2024/04/26 07:04:46;;;;;;;1.98;1.88;;;;;;;37.04;75.13;100395.44;5385792;26;68969;-40
2024/04/26 07:07:18;;;;;;;2.05;1.90;;;;;;;37.08;75.36;100385.56;5385232;26;65259;-40
2024/04/26 07:09:50;;;;;;;2.28;1.95;;;;;;;37.12;74.52;100375.72;5386513;26;67895;-40
2024/04/26 07:12:21;;;;;;;;;;;;;;;37.13;73.96;100371.91;5387325;26;64983;-38
2024/04/26 07:14:52;;;;;;;2.45;2.25;;;;;;;37.23;74.58;100371.88;5383974;26;68438;-39
2024/04/26 07:17:25;;;;;;;2.10;2.00;;;;;;;37.27;74.90;100372.97;5414966;26;64054;-40
2024/04/26 07:19:57;;;;;;;2.00;1.90;;;;;;;37.33;74.45;100371.03;5385840;26;68996;-39
2024/04/26 07:22:28;;;;;;;1.80;1.70;;;;;;;37.34;74.35;100368.03;5383236;26;64918;-39
2024/04/26 07:25:04;;;;;;;1.92;1.80;;;;;;;37.42;74.26;100363.06;5394391;26;68646;-39
2024/04/26 07:27:35;;;;;;;;;;;;;;;37.34;72.58;100357.09;5393200;26;64572;-40
2024/04/26 07:30:06;;;;;;;1.85;1.60;;;;;;;37.53;73.22;100356.53;5384811;26;68279;-39
2024/04/26 07:32:38;;;;;;;2.13;1.92;;;;;;;37.58;72.96;100342.81;5385746;26;65071;-38
2024/04/26 07:35:10;;;;;;;1.95;1.85;;;;;;;37.61;73.32;100345.00;5384171;26;68927;-39
2024/04/26 07:37:41;;;;;;;2.00;1.77;;;;;;;37.65;73.59;100348.00;5384177;26;64744;-40
2024/04/26 07:40:13;;;;;;;1.98;1.88;;;;;;;37.70;72.67;100348.00;5386115;26;67624;-39
2024/04/26 07:42:43;;;;;;;;;;;;;;;37.56;71.10;100325.88;5374042;26;64569;-40
2024/04/26 07:45:14;;;;;;;2.60;1.98;;;;;;;37.79;72.28;100338.09;5385632;26;68815;-40
2024/04/26 07:47:47;;;;;;;2.10;2.00;;;;;;;37.83;72.70;100321.91;5387199;26;64934;-40
2024/04/26 07:50:21;;;;;;;2.45;1.88;;;;;;;37.87;72.58;100314.78;5381956;26;68707;-40
2024/04/26 07:52:53;;;;;;;1.90;1.80;;;;;;;37.92;72.40;100328.44;5383518;26;64083;-40
2024/04/26 07:55:25;;;;;;;1.45;1.35;;;;;;;37.94;71.64;100320.75;5384548;26;67913;-40
2024/04/26 07:57:57;;;;;;;1.70;1.60;;;;;;;37.96;71.39;100319.41;5320322;26;64186;-40
2024/04/26 08:00:28;;;;;;;1.92;1.67;;;;;;;38.02;72.21;100322.13;5400874;26;68482;-38
2024/04/26 08:03:01;;;;;;;2.20;2.00;;;;;;;37.85;71.98;100284.13;5397836;26;63917;-39
2024/04/26 08:05:33;;;;;;;1.52;1.42;;;;;;;38.07;71.31;100303.75;5361090;26;69303;-38
2024/04/26 08:08:05;;;;;;;1.25;1.15;;;;;;;38.10;71.55;100305.91;5385714;26;64971;-40
2024/04/26 08:10:35;;;;;;;;;;;;;;;37.98;70.10;100299.97;5383334;26;68344;-38
2024/04/26 08:13:07;;;;;;;1.88;1.77;;;;;;;38.14;71.51;100304.25;5382286;26;64185;-39
2024/04/26 08:15:40;;;;;;;1.70;1.60;;;;;;;38.15;71.53;100297.66;5386005;26;68490;-39
2024/04/26 08:18:11;;;;;;;3.10;1.50;;;;;;;38.17;70.84;100295.47;5382425;26;65970;-40
2024/04/26 08:20:43;;;;;;;1.73;1.63;;;;;;;38.19;70.77;100286.94;5385024;26;69124;-40
2024/04/26 08:23:15;;;;;;;2.58;1.50;;;;;;;38.20;71.49;100300.38;5385929;26;64261;-40
2024/04/26 08:25:46;;;;;;;1.67;1.58;;;;;;;38.21;70.98;100288.31;5383319;26;69667;-39
2024/04/26 08:28:17;;;;;;;;;;;;;;;38.10;70.37;100300.44;5365720;26;65590;-40
2024/04/26 08:30:51;;;;;;;1.30;1.20;;;;;;;38.21;70.88;100288.31;5384010;26;68465;-40
2024/04/26 08:33:21;;;;;;;;;;;;;;;38.12;69.54;100292.75;5392680;26;65015;-41
2024/04/26 08:35:53;;;;;;;2.20;1.65;;;;;;;38.27;70.76;100299.22;5400878;26;68372;-39
2024/04/26 08:38:25;;;;;;;1.70;1.60;;;;;;;38.27;71.13;100296.50;5381061;26;64104;-39
2024/04/26 08:40:56;;;;;;;1.73;1.63;;;;;;;38.23;71.65;100297.06;5378146;26;67726;-40
2024/04/26 08:43:29;;;;;;;2.13;1.90;;;;;;;38.26;70.63;100295.69;5375349;26;65397;-41
2024/04/26 08:46:03;;;;;;;1.70;1.60;;;;;;;38.23;70.69;100294.31;5381869;26;68600;-39
2024/04/26 08:48:38;;;;;;;1.92;1.67;;;;;;;38.28;71.40;100298.97;5385921;26;63616;-41
2024/04/26 08:51:12;;;;;;;4.63;1.70;;;;;;;38.32;71.32;100296.47;5375662;26;67813;-40
2024/04/26 08:53:44;;;;;;;1.75;1.60;;;;;;;38.08;70.09;100245.13;5383329;26;65366;-39
2024/04/26 08:56:20;;;;;;;2.80;2.00;;;;;;;38.28;70.71;100288.00;5383661;26;68739;-39
2024/04/26 08:58:54;;;;;;;3.40;1.75;;;;;;;38.29;70.74;100286.88;5381361;26;65408;-39
2024/04/26 09:01:26;;;;;;;1.95;1.60;;;;;;;38.29;71.39;100280.59;5384974;26;68542;-39
2024/04/26 09:03:57;;;;;;;3.53;1.80;;;;;;;38.28;71.41;100287.16;5383260;26;64462;-40
2024/04/26 09:06:34;;;;;;;2.97;1.80;;;;;;;38.09;69.79;100245.97;5384806;26;69447;-38
2024/04/26 09:09:06;;;;;;;2.72;2.22;;;;;;;38.27;70.55;100277.31;5397080;26;65020;-39
2024/04/26 09:11:38;;;;;;;1.98;1.88;;;;;;;38.28;70.35;100278.94;5382002;26;68894;-41
2024/04/26 09:14:09;;;;;;;3.75;2.10;;;;;;;38.26;71.13;100267.47;5366381;26;64757;-39
2024/04/26 09:16:41;;;;;;;2.45;2.25;;;;;;;38.23;71.23;100269.69;5384022;26;68347;-40
2024/04/26 09:19:13;;;;;;;6.07;2.53;;;;;;;38.22;71.37;100272.69;5382156;26;64156;-39
2024/04/26 09:21:45;;;;;;;2.90;2.63;;;;;;;38.19;71.55;100267.78;5382028;26;68971;-40
2024/04/26 09:24:16;;;;;;;6.55;2.42;;;;;;;38.20;71.47;100274.91;5384502;26;65534;-41
2024/04/26 09:26:48;;;;;;;4.20;2.70;;;;;;;38.10;71.45;100259.34;5382474;26;67943;-40
2024/04/26 09:29:19;;;;;;;7.32;3.03;;;;;;;38.09;71.37;100273.34;5384078;26;65104;-40
2024/04/26 09:32:04;;;;;;;4.80;2.60;;;;;;;38.01;71.41;100282.97;5383174;26;68919;-39
2024/04/26 09:34:55;;;;;;;5.35;2.70;;;;;;;38.06;72.11;100291.16;5382652;26;64880;-41
2024/04/26 09:37:29;;;;;;;5.78;2.53;;;;;;;37.89;72.25;100272.34;5381667;26;69272;-41
2024/04/26 09:40:01;;;;;;;8.85;2.53;;;;;;;38.01;72.39;100293.94;5384129;26;65421;-40
2024/04/26 09:42:34;;;;;;;7.53;2.92;;;;;;;37.98;72.60;100292.56;5395926;26;69682;-39
2024/04/26 09:45:08;;;;;;;3.78;2.90;;;;;;;37.86;72.72;100275.63;5394649;26;65043;-40
2024/04/26 09:47:42;;;;;;;2.92;2.70;;;;;;;37.90;72.81;100298.63;5384710;26;68648;-39
2024/04/26 09:50:16;;;;;;;2.83;2.63;;;;;;;37.69;72.99;100276.00;5381382;26;64097;-39
2024/04/26 09:52:51;;;;;;;3.33;3.00;;;;;;;37.92;72.73;100312.00;5381117;26;67826;-39
2024/04/26 09:55:25;;;;;;;10.20;3.40;;;;;;;37.87;72.89;100312.06;5384818;26;64196;-39
2024/04/26 09:57:56;;;;;;;8.52;3.10;;;;;;;37.90;72.11;100308.75;5381954;26;68435;-40
2024/04/26 10:00:28;;;;;;;;;;;;;;;37.82;72.65;100312.06;5384417;26;65316;-39
2024/04/26 10:03:03;;;;;;;;;;;;;;;37.75;72.81;100309.63;5382443;26;67580;-39
2024/04/26 10:05:35;;;;;;;8.15;2.92;;;;;;;37.89;72.14;100318.03;5381852;26;64945;-41
2024/04/26 10:08:11;;;;;;;4.50;3.08;;;;;;;37.83;72.76;100319.19;5373180;26;68447;-41
2024/04/26 10:10:43;;;;;;;9.20;3.53;;;;;;;37.79;72.60;100330.69;5380059;26;64507;-40
2024/04/26 10:13:19;;;;;;;;;;;;;;;37.68;72.30;100345.53;5388460;26;68210;-39
2024/04/26 10:15:55;;;;;;;4.05;3.03;;;;;;;37.57;71.84;100311.09;5376809;26;65659;-40
2024/04/26 10:18:38;;;;;;;3.55;3.30;;;;;;;37.69;72.26;100347.16;5382229;26;69365;-39
2024/04/26 10:21:21;;;;;;;3.13;2.80;;;;;;;37.72;72.19;100352.09;5377364;26;64108;-39
2024/04/26 10:24:00;;;;;;;3.72;3.38;;;;;;;37.50;72.90;100321.50;5373282;26;69230;-40
2024/04/26 10:26:31;;;;;;;3.60;3.10;;;;;;;37.69;72.72;100362.75;5380518;26;64042;-40
2024/04/26 10:29:10;;;;;;;;;;;;;;;37.51;72.45;100367.75;5381937;26;68461;-40
2024/04/26 10:31:41;;;;;;;3.42;3.13;;;;;;;37.63;72.43;100378.38;5385599;26;65443;-40
2024/04/26 10:34:19;;;;;;;6.38;2.90;;;;;;;37.51;71.60;100386.09;5383646;26;68418;-40
2024/04/26 10:36:51;;;;;;;3.78;3.38;;;;;;;37.57;73.13;100393.19;5376454;26;65395;-40
2024/04/26 10:39:30;;;;;;;5.03;3.17;;;;;;;37.56;72.91;100380.59;5383212;26;68152;-40
2024/04/26 10:42:02;;;;;;;3.85;3.50;;;;;;;37.52;72.39;100387.72;5385574;26;64734;-40
2024/04/26 10:44:37;;;;;;;5.88;3.30;;;;;;;37.42;73.91;100384.97;5377595;26;68073;-40
2024/04/26 10:47:09;;;;;;;3.95;3.65;;;;;;;37.47;72.96;100376.75;5392734;26;66076;-40
2024/04/26 10:49:43;;;;;;;13.82;4.07;;;;;;;37.46;73.50;100386.88;5396298;26;68718;-38
2024/04/26 10:52:14;;;;;;;4.50;4.00;;;;;;;37.44;74.21;100391.00;5383805;26;64074;-39
2024/04/26 10:54:46;;;;;;;4.35;3.78;;;;;;;37.43;74.27;100392.09;5385016;26;67830;-39
2024/04/26 10:57:24;;;;;;;4.57;3.05;;;;;;;37.39;74.05;100397.31;5386641;26;65301;-40
2024/04/26 11:00:00;;;;;;;6.55;3.10;;;;;;;37.39;73.85;100396.47;5382907;26;69197;-38
2024/04/26 11:02:32;;;;;;;4.47;3.72;;;;;;;37.30;74.64;100394.28;5385727;26;64943;-39
2024/04/26 11:05:04;;;;;;;4.85;3.88;;;;;;;37.25;74.92;100397.06;5382157;26;69194;-42
2024/04/26 11:07:38;;;;;;;4.05;3.65;;;;;;;37.18;75.15;100396.50;5385271;26;65406;-39
2024/04/26 11:10:13;;;;;;;8.77;5.57;;;;;;;37.16;74.67;100404.16;5381136;26;68805;-39
2024/04/26 11:12:44;;;;;;;11.45;4.80;;;;;;;37.13;74.71;100410.19;5377060;26;64024;-40
2024/04/26 11:15:15;;;;;;;;;;;;;;;37.07;75.45;100409.34;5381591;26;68358;-40
2024/04/26 11:17:47;;;;;;;3.97;3.67;;;;;;;37.13;74.40;100411.00;5385869;26;64666;-38
2024/04/26 11:20:19;;;;;;;4.47;3.72;;;;;;;37.19;73.97;100413.72;5382919;26;69757;-39
2024/04/26 11:22:50;;;;;;;5.63;3.33;;;;;;;37.06;74.77;100415.13;5376853;26;64582;-39
2024/04/26 11:25:21;;;;;;;7.97;4.00;;;;;;;37.06;74.76;100415.94;5381860;26;67900;-42
2024/04/26 11:27:52;;;;;;;9.77;3.72;;;;;;;37.15;74.59;100418.13;5383345;26;64229;-39
2024/04/26 11:30:24;;;;;;;8.10;3.63;;;;;;;37.17;74.03;100418.66;5386608;26;68641;-39
2024/04/26 11:32:55;;;;;;;7.78;4.60;;;;;;;37.14;74.50;100411.84;5385492;26;65417;-41
2024/04/26 11:35:27;;;;;;;5.95;4.35;;;;;;;37.04;75.75;100403.63;5385294;26;68599;-39
2024/04/26 11:37:58;;;;;;;8.65;4.28;;;;;;;37.00;75.72;100405.22;5382940;26;64028;-39
2024/04/26 11:40:29;;;;;;;4.30;3.90;;;;;;;37.00;74.95;100410.69;5383151;26;69037;-42
2024/04/26 11:43:01;;;;;;;9.35;4.93;;;;;;;36.95;75.57;100407.97;5387344;26;64987;-44
2024/04/26 11:45:32;;;;;;;5.70;4.00;;;;;;;36.97;76.29;100403.03;5388317;26;69368;-40
2024/04/26 11:48:04;;;;;;;5.65;3.72;;;;;;;36.83;77.02;100395.41;5387047;26;65082;-42
2024/04/26 11:50:35;;;;;;;5.40;3.72;;;;;;;36.76;76.55;100389.38;5388089;26;69117;-40